Time;durP1;ratioP1;P1;durP2;ratioP2;P2;SDS_P1;SDS_P2;PMS_P1;PMS_P2;Temp;Humidity;BMP_temperature;BMP_pressure;BME280_temperature;BME280_humidity;BME280_pressure;Samples;Min_cycle;Max_cycle;Signal;HPM_P1;HPM_P2
2023/06/04 00:02:10;;;;;;;2.40;1.00;;;15.40;73.20;;;;;;6242844;23;20001;-71
2023/06/04 00:04:36;;;;;;;3.88;0.93;;;15.40;73.50;;;;;;6241216;23;20024;-71
2023/06/04 00:07:01;;;;;;;3.03;1.05;;;15.30;73.50;;;;;;6242422;23;20023;-71
2023/06/04 00:09:27;;;;;;;5.32;1.35;;;15.30;73.50;;;;;;6241009;23;20371;-70
2023/06/04 00:11:52;;;;;;;3.53;1.30;;;15.30;73.60;;;;;;6241982;23;20378;-71
2023/06/04 00:14:18;;;;;;;4.05;1.40;;;15.20;73.70;;;;;;6241184;23;20087;-70
2023/06/04 00:16:43;;;;;;;2.03;0.80;;;15.20;73.90;;;;;;6243210;23;20004;-70
2023/06/04 00:19:09;;;;;;;1.83;1.17;;;15.20;74.00;;;;;;6242462;23;20004;-70
2023/06/04 00:21:35;;;;;;;3.80;1.48;;;15.10;74.10;;;;;;6242611;23;20094;-70
2023/06/04 00:24:01;;;;;;;1.90;1.05;;;15.10;74.20;;;;;;6242709;23;20046;-71
2023/06/04 00:26:27;;;;;;;1.75;1.02;;;15.10;74.30;;;;;;6242508;23;20013;-70
2023/06/04 00:28:54;;;;;;;4.30;1.10;;;15.10;74.30;;;;;;6242640;23;20042;-71
2023/06/04 00:31:21;;;;;;;2.58;1.45;;;15.00;74.50;;;;;;6242487;23;20003;-71
2023/06/04 00:33:47;;;;;;;3.03;0.95;;;15.00;75.10;;;;;;6241853;23;20275;-70
2023/06/04 00:36:12;;;;;;;3.30;0.98;;;15.00;74.60;;;;;;6242227;23;20122;-70
2023/06/04 00:38:38;;;;;;;3.28;1.02;;;14.90;74.60;;;;;;6242474;23;20008;-70
2023/06/04 00:41:03;;;;;;;4.32;1.02;;;14.90;74.50;;;;;;6242803;23;20000;-71
2023/06/04 00:43:31;;;;;;;5.32;1.70;;;14.90;74.60;;;;;;6242457;23;19997;-70
2023/06/04 00:45:57;;;;;;;2.90;1.02;;;14.80;74.60;;;;;;6242566;23;20011;-71
2023/06/04 00:48:23;;;;;;;4.68;1.25;;;14.80;75.20;;;;;;6241939;23;20000;-70
2023/06/04 00:50:49;;;;;;;6.13;1.00;;;14.70;74.80;;;;;;6242520;23;20087;-70
2023/06/04 00:53:15;;;;;;;2.83;0.80;;;14.80;74.90;;;;;;6241903;23;20078;-70
2023/06/04 00:55:41;;;;;;;3.53;0.90;;;14.70;74.80;;;;;;6241834;23;20000;-70
2023/06/04 00:58:08;;;;;;;2.78;1.25;;;14.70;74.90;;;;;;6242681;23;20373;-70
2023/06/04 01:00:34;;;;;;;6.70;1.23;;;14.70;75.00;;;;;;6242378;23;20004;-70
2023/06/04 01:03:05;;;;;;;2.20;1.13;;;14.60;75.00;;;;;;6242385;23;20341;-70
2023/06/04 01:05:42;;;;;;;4.45;1.00;;;14.60;75.00;;;;;;6242581;23;20003;-71
2023/06/04 01:08:09;;;;;;;3.05;1.02;;;14.50;75.10;;;;;;6242661;23;20079;-70
2023/06/04 01:10:36;;;;;;;4.05;1.23;;;14.50;75.30;;;;;;6242355;23;20079;-70
2023/06/04 01:13:01;;;;;;;3.28;1.00;;;14.40;75.40;;;;;;6242390;23;20016;-70
2023/06/04 01:15:27;;;;;;;3.88;1.60;;;14.40;75.40;;;;;;6241599;23;20022;-70
2023/06/04 01:18:02;;;;;;;1.80;1.10;;;14.40;75.60;;;;;;6242154;23;20004;-70
2023/06/04 01:20:34;;;;;;;2.00;1.20;;;14.40;75.70;;;;;;6242268;23;20070;-70
2023/06/04 01:23:05;;;;;;;2.85;1.20;;;14.30;75.70;;;;;;6242123;23;20004;-70
2023/06/04 01:25:38;;;;;;;4.35;1.58;;;14.30;75.60;;;;;;6242246;23;20024;-70
2023/06/04 01:28:06;;;;;;;2.47;1.10;;;14.30;75.80;;;;;;6242088;23;20345;-71
2023/06/04 01:30:36;;;;;;;2.53;1.00;;;14.20;75.80;;;;;;6241503;23;20429;-70
2023/06/04 01:33:02;;;;;;;3.17;1.23;;;14.20;76.00;;;;;;6241901;23;20079;-71
2023/06/04 01:35:31;;;;;;;2.53;1.17;;;14.20;76.00;;;;;;6242029;23;20012;-70
2023/06/04 01:37:57;;;;;;;1.92;1.02;;;14.20;76.20;;;;;;6241923;23;20421;-70
2023/06/04 01:40:23;;;;;;;4.00;1.17;;;14.10;76.10;;;;;;6241793;23;20000;-70
2023/06/04 01:42:49;;;;;;;3.33;1.30;;;14.10;76.10;;;;;;6241979;23;20071;-70
2023/06/04 01:45:14;;;;;;;2.65;0.80;;;14.10;76.20;;;;;;6241198;23;20084;-70
2023/06/04 01:47:40;;;;;;;2.85;1.20;;;14.10;76.30;;;;;;6241944;23;20047;-70
2023/06/04 01:50:10;;;;;;;2.35;1.25;;;14.10;76.30;;;;;;6242213;23;20016;-71
2023/06/04 01:52:39;;;;;;;2.75;1.15;;;14.10;76.20;;;;;;6242161;23;19996;-70
2023/06/04 01:55:07;;;;;;;3.95;1.15;;;14.10;76.20;;;;;;6241983;23;20081;-70
2023/06/04 01:57:33;;;;;;;1.85;0.90;;;14.00;76.10;;;;;;6241711;23;20004;-70
2023/06/04 01:59:59;;;;;;;2.55;1.33;;;14.00;76.00;;;;;;6241200;23;20334;-70
2023/06/04 02:02:25;;;;;;;4.10;1.13;;;14.00;75.90;;;;;;6241640;23;20000;-70
2023/06/04 02:04:51;;;;;;;2.47;1.10;;;14.00;76.00;;;;;;6241760;23;20000;-70
2023/06/04 02:07:20;;;;;;;2.30;1.02;;;14.00;76.00;;;;;;6241396;23;19997;-70
2023/06/04 02:09:46;;;;;;;2.20;1.15;;;14.00;76.00;;;;;;6241683;23;20024;-70
2023/06/04 02:12:12;;;;;;;2.97;1.00;;;14.00;76.00;;;;;;6241557;23;20026;-70
2023/06/04 02:14:37;;;;;;;1.70;0.90;;;14.00;76.10;;;;;;6241042;23;20004;-70
2023/06/04 02:17:04;;;;;;;3.03;1.30;;;14.00;76.10;;;;;;6241825;23;20038;-70
2023/06/04 02:19:33;;;;;;;2.78;1.05;;;13.90;76.70;;;;;;6241312;23;20453;-70
2023/06/04 02:21:58;;;;;;;1.08;0.82;;;13.90;76.20;;;;;;6240650;23;20445;-71
2023/06/04 02:24:24;;;;;;;3.83;1.10;;;13.90;76.20;;;;;;6240790;23;19996;-71
2023/06/04 02:26:49;;;;;;;3.70;1.17;;;13.90;76.20;;;;;;6241076;23;20284;-71
2023/06/04 02:29:15;;;;;;;3.28;1.33;;;13.90;76.40;;;;;;6240771;23;20434;-71
2023/06/04 02:31:40;;;;;;;1.27;1.05;;;13.90;76.50;;;;;;6240975;23;20000;-71
2023/06/04 02:34:06;;;;;;;2.50;1.60;;;13.80;76.50;;;;;;6241634;23;20079;-70
2023/06/04 02:36:32;;;;;;;2.03;1.48;;;13.70;76.60;;;;;;6241621;23;20000;-70
2023/06/04 02:38:57;;;;;;;1.95;0.90;;;13.70;76.90;;;;;;6214507;23;20342;-70
2023/06/04 02:41:23;;;;;;;3.20;1.20;;;13.70;76.90;;;;;;6241283;23;20406;-71
2023/06/04 02:43:49;;;;;;;2.50;1.00;;;13.70;77.10;;;;;;6240757;23;20054;-70
2023/06/04 02:46:15;;;;;;;2.83;1.33;;;13.70;77.20;;;;;;6240953;23;20409;-70
2023/06/04 02:48:40;;;;;;;4.85;1.42;;;13.60;77.20;;;;;;6241308;23;20007;-70
2023/06/04 02:51:09;;;;;;;2.47;1.13;;;13.70;77.30;;;;;;6241657;23;20043;-70
2023/06/04 02:53:38;;;;;;;2.15;0.95;;;13.60;77.60;;;;;;6241183;23;20000;-70
2023/06/04 02:56:04;;;;;;;2.33;1.02;;;13.60;77.70;;;;;;6241254;23;20012;-70
2023/06/04 02:58:31;;;;;;;4.88;1.20;;;13.60;77.80;;;;;;6239868;23;20071;-70
2023/06/04 03:00:57;;;;;;;2.65;1.20;;;13.50;77.90;;;;;;6214208;23;20020;-70
2023/06/04 03:03:22;;;;;;;2.45;1.00;;;13.50;78.00;;;;;;6241316;23;20361;-70
2023/06/04 03:05:49;;;;;;;3.10;1.23;;;13.50;78.10;;;;;;6241410;23;20000;-70
2023/06/04 03:08:14;;;;;;;4.65;1.92;;;13.40;78.10;;;;;;6241276;23;20000;-71
2023/06/04 03:10:40;;;;;;;3.08;1.00;;;13.40;78.30;;;;;;6240988;23;20030;-70
2023/06/04 03:13:05;;;;;;;5.55;1.92;;;13.40;78.40;;;;;;6240994;23;20008;-70
2023/06/04 03:15:31;;;;;;;2.67;1.33;;;13.40;78.50;;;;;;6241142;23;20004;-71
2023/06/04 03:17:57;;;;;;;5.93;1.35;;;13.40;78.60;;;;;;6241178;23;20330;-71
2023/06/04 03:20:24;;;;;;;4.25;1.15;;;13.30;78.60;;;;;;6240908;23;20454;-71
2023/06/04 03:22:50;;;;;;;3.63;1.45;;;13.30;78.60;;;;;;6241229;23;20299;-71
2023/06/04 03:25:16;;;;;;;5.35;1.55;;;13.30;78.90;;;;;;6240816;23;20000;-71
2023/06/04 03:27:41;;;;;;;4.55;1.17;;;13.30;79.20;;;;;;6240354;23;20553;-71
2023/06/04 03:30:08;;;;;;;3.05;1.20;;;13.20;79.20;;;;;;6240943;23;20007;-71
2023/06/04 03:32:33;;;;;;;2.42;1.23;;;13.20;79.30;;;;;;6241188;23;20383;-71
2023/06/04 03:35:00;;;;;;;3.53;1.20;;;13.20;79.40;;;;;;6241009;23;20004;-71
2023/06/04 03:37:26;;;;;;;3.28;1.20;;;13.20;79.60;;;;;;6240446;23;20042;-71
2023/06/04 03:39:52;;;;;;;6.10;1.65;;;13.20;80.00;;;;;;6240713;23;19996;-71
2023/06/04 03:42:18;;;;;;;6.43;1.60;;;13.10;80.00;;;;;;6240405;23;20004;-71
2023/06/04 03:44:44;;;;;;;2.45;1.55;;;13.10;80.10;;;;;;6241058;23;20395;-71
2023/06/04 03:47:09;;;;;;;3.45;1.42;;;13.10;80.10;;;;;;6241271;23;20043;-71
2023/06/04 03:49:35;;;;;;;4.72;1.05;;;13.10;80.30;;;;;;6241271;23;20000;-71
2023/06/04 03:52:01;;;;;;;3.35;1.27;;;13.10;80.40;;;;;;6239655;23;20480;-71
2023/06/04 03:54:26;;;;;;;2.97;1.35;;;13.10;80.50;;;;;;6239276;23;20031;-70
2023/06/04 03:56:52;;;;;;;3.65;1.40;;;13.10;80.60;;;;;;6238709;23;20207;-71
2023/06/04 03:59:17;;;;;;;3.38;1.35;;;13.10;80.70;;;;;;6241288;23;19996;-70
2023/06/04 04:01:43;;;;;;;2.53;1.45;;;13.10;80.80;;;;;;6242481;23;20087;-70
2023/06/04 04:04:09;;;;;;;4.90;1.60;;;13.10;80.90;;;;;;6242920;23;20031;-71
2023/06/04 04:06:35;;;;;;;2.67;1.67;;;13.10;81.00;;;;;;6242600;23;19997;-71
2023/06/04 04:09:02;;;;;;;3.53;1.27;;;13.10;81.10;;;;;;6242766;23;20055;-71
2023/06/04 04:11:28;;;;;;;2.67;1.38;;;13.10;81.10;;;;;;6242248;23;20046;-71
2023/06/04 04:13:53;;;;;;;3.60;1.30;;;13.10;81.20;;;;;;6242734;23;20000;-71
2023/06/04 04:16:19;;;;;;;3.08;1.75;;;13.10;81.20;;;;;;6242426;23;20024;-71
2023/06/04 04:18:45;;;;;;;3.35;1.40;;;13.10;81.30;;;;;;6242755;23;20001;-71
2023/06/04 04:21:11;;;;;;;3.97;1.80;;;13.20;81.40;;;;;;6242563;23;20014;-71
2023/06/04 04:23:40;;;;;;;5.30;1.65;;;13.10;81.40;;;;;;6241978;23;20036;-71
2023/06/04 04:26:06;;;;;;;5.00;1.50;;;13.20;81.50;;;;;;6242657;23;20001;-70
2023/06/04 04:28:32;;;;;;;3.55;1.73;;;13.20;81.60;;;;;;6242699;23;20083;-71
2023/06/04 04:30:59;;;;;;;3.50;1.70;;;13.20;81.80;;;;;;6242743;23;20000;-71
2023/06/04 04:33:25;;;;;;;3.03;1.60;;;13.20;81.90;;;;;;6242566;23;20047;-71
2023/06/04 04:35:52;;;;;;;3.72;1.95;;;13.20;81.90;;;;;;6242645;23;20008;-71
2023/06/04 04:38:19;;;;;;;2.83;1.90;;;13.20;82.00;;;;;;6241957;23;20326;-71
2023/06/04 04:40:47;;;;;;;3.80;1.50;;;13.20;82.10;;;;;;6242292;23;20008;-71
2023/06/04 04:43:13;;;;;;;2.25;1.05;;;13.20;82.20;;;;;;6242524;23;20326;-71
2023/06/04 04:45:38;;;;;;;3.15;1.58;;;13.20;82.30;;;;;;6242551;23;20000;-71
2023/06/04 04:48:04;;;;;;;3.60;1.75;;;13.20;82.40;;;;;;6242344;23;19996;-71
2023/06/04 04:50:31;;;;;;;2.78;1.45;;;13.30;82.80;;;;;;6242478;23;20034;-71
2023/06/04 04:52:57;;;;;;;2.67;1.48;;;13.30;82.80;;;;;;6241778;23;20008;-71
2023/06/04 04:55:23;;;;;;;3.90;1.65;;;13.30;83.10;;;;;;6242248;23;20457;-71
2023/06/04 04:57:48;;;;;;;2.20;1.58;;;13.30;83.10;;;;;;6242441;23;19996;-70
2023/06/04 05:00:15;;;;;;;3.85;1.50;;;13.40;83.20;;;;;;6242366;23;20135;-71
2023/06/04 05:02:41;;;;;;;4.65;2.67;;;13.40;83.40;;;;;;6242447;23;20000;-70
2023/06/04 05:05:06;;;;;;;2.47;1.45;;;13.40;83.30;;;;;;6242858;23;20054;-70
2023/06/04 05:07:32;;;;;;;6.07;2.30;;;13.50;83.50;;;;;;6241694;23;20329;-71
2023/06/04 05:09:58;;;;;;;5.47;2.50;;;13.50;83.90;;;;;;6241950;23;20737;-71
2023/06/04 05:12:26;;;;;;;6.22;2.03;;;13.60;84.10;;;;;;6242245;23;19996;-71
2023/06/04 05:14:51;;;;;;;5.53;2.33;;;13.60;84.00;;;;;;6242251;23;20075;-71
2023/06/04 05:17:29;;;;;;;3.10;2.03;;;13.60;84.10;;;;;;6242252;23;20034;-70
2023/06/04 05:20:11;;;;;;;5.40;2.05;;;13.70;84.10;;;;;;6242286;23;20114;-71
2023/06/04 05:22:40;;;;;;;5.20;2.25;;;13.70;84.10;;;;;;6241815;23;20000;-71
2023/06/04 05:25:06;;;;;;;3.40;1.80;;;13.80;84.10;;;;;;6242317;23;20004;-71
2023/06/04 05:27:32;;;;;;;4.00;2.33;;;13.80;83.90;;;;;;6242105;23;20035;-71
2023/06/04 05:29:58;;;;;;;6.50;1.80;;;13.90;83.80;;;;;;6242149;23;20001;-71
2023/06/04 05:32:28;;;;;;;3.90;1.92;;;13.90;83.80;;;;;;6242001;23;20019;-71
2023/06/04 05:34:57;;;;;;;5.18;2.38;;;14.00;83.70;;;;;;6242061;23;20418;-71
2023/06/04 05:37:23;;;;;;;3.80;2.20;;;14.00;83.70;;;;;;6241464;23;20004;-71
2023/06/04 05:39:50;;;;;;;5.18;2.17;;;14.10;83.90;;;;;;6241949;23;20027;-71
2023/06/04 05:42:15;;;;;;;10.05;2.30;;;14.20;83.80;;;;;;6241943;23;20030;-71
2023/06/04 05:44:41;;;;;;;3.47;2.10;;;14.20;83.60;;;;;;6241927;23;20426;-71
2023/06/04 05:47:06;;;;;;;5.15;2.28;;;14.30;83.40;;;;;;6242089;23;20012;-71
2023/06/04 05:49:34;;;;;;;3.33;1.60;;;14.40;83.50;;;;;;6215145;23;20419;-71
2023/06/04 05:52:00;;;;;;;5.38;2.20;;;14.40;83.50;;;;;;6241473;23;20012;-71
2023/06/04 05:54:27;;;;;;;2.22;1.40;;;14.50;83.30;;;;;;6242203;23;20330;-71
2023/06/04 05:56:52;;;;;;;6.10;2.45;;;14.50;83.20;;;;;;6241731;23;20362;-71
2023/06/04 05:59:18;;;;;;;4.60;2.00;;;14.50;83.10;;;;;;6241929;23;19996;-71
2023/06/04 06:01:43;;;;;;;4.75;1.70;;;14.60;82.90;;;;;;6241730;23;20379;-71
2023/06/04 06:04:10;;;;;;;5.45;2.33;;;14.70;82.80;;;;;;6242057;23;20003;-71
2023/06/04 06:06:36;;;;;;;5.40;2.17;;;14.70;82.80;;;;;;6241490;23;20102;-71
2023/06/04 06:09:01;;;;;;;4.50;2.38;;;14.70;82.90;;;;;;6242028;23;20070;-71
2023/06/04 06:11:27;;;;;;;3.75;1.92;;;14.80;82.90;;;;;;6241737;23;20007;-71
2023/06/04 06:13:53;;;;;;;4.30;2.53;;;14.90;82.80;;;;;;6241926;23;20070;-72
2023/06/04 06:16:18;;;;;;;6.93;2.15;;;15.00;82.70;;;;;;6241675;23;20506;-71
2023/06/04 06:18:44;;;;;;;6.97;2.35;;;15.00;82.50;;;;;;6241777;23;20000;-71
2023/06/04 06:21:10;;;;;;;5.10;1.48;;;15.10;82.30;;;;;;6241470;23;20008;-72
2023/06/04 06:23:35;;;;;;;6.60;1.60;;;15.10;82.30;;;;;;6241965;23;20282;-72
2023/06/04 06:26:02;;;;;;;5.10;1.98;;;15.20;82.10;;;;;;6241541;23;19997;-72
2023/06/04 06:28:27;;;;;;;2.75;1.60;;;15.20;82.00;;;;;;6241656;23;20029;-71
2023/06/04 06:30:53;;;;;;;2.38;1.67;;;15.30;81.80;;;;;;6214779;23;20015;-71
2023/06/04 06:33:21;;;;;;;7.47;2.00;;;15.40;81.80;;;;;;6241213;23;20000;-71
2023/06/04 06:35:47;;;;;;;3.70;1.83;;;15.40;81.60;;;;;;6240891;23;20004;-71
2023/06/04 06:38:13;;;;;;;3.63;1.73;;;15.50;81.40;;;;;;6241850;23;20030;-71
2023/06/04 06:40:40;;;;;;;3.92;1.90;;;15.60;81.20;;;;;;6241350;23;20004;-70
2023/06/04 06:43:05;;;;;;;2.92;1.63;;;15.60;81.00;;;;;;6241701;23;19999;-71
2023/06/04 06:45:31;;;;;;;3.85;2.08;;;15.70;80.90;;;;;;6241548;23;20027;-71
2023/06/04 06:47:56;;;;;;;4.65;1.65;;;15.70;80.60;;;;;;6241971;23;20028;-71
2023/06/04 06:50:22;;;;;;;4.90;1.98;;;15.80;80.40;;;;;;6240708;23;20481;-79
2023/06/04 06:52:47;;;;;;;4.68;2.08;;;15.90;80.20;;;;;;6214106;23;20004;-80
2023/06/04 06:55:13;;;;;;;4.38;1.83;;;15.90;80.30;;;;;;6213824;23;20555;-76
2023/06/04 06:57:38;;;;;;;5.90;2.22;;;16.00;80.10;;;;;;6240940;23;20004;-79
2023/06/04 07:00:05;;;;;;;4.10;1.48;;;16.10;79.90;;;;;;6241430;23;20012;-78
2023/06/04 07:02:31;;;;;;;4.25;1.77;;;16.20;79.70;;;;;;6213809;23;20000;-78
2023/06/04 07:04:56;;;;;;;1.95;1.30;;;16.20;79.50;;;;;;6213168;23;20014;-78
2023/06/04 07:07:22;;;;;;;4.05;1.58;;;16.30;79.00;;;;;;6214261;23;20055;-78
2023/06/04 07:09:48;;;;;;;5.00;1.50;;;16.40;78.90;;;;;;6213985;23;20397;-79
2023/06/04 07:12:13;;;;;;;2.85;1.50;;;16.50;78.60;;;;;;6214128;23;20046;-78
2023/06/04 07:14:39;;;;;;;2.63;1.45;;;16.50;78.10;;;;;;6242246;23;20000;-78
2023/06/04 07:17:05;;;;;;;3.80;1.52;;;16.50;77.90;;;;;;6216243;23;20004;-78
2023/06/04 07:19:30;;;;;;;3.10;1.33;;;16.70;77.60;;;;;;6241774;23;20011;-79
2023/06/04 07:21:56;;;;;;;3.33;1.30;;;16.70;77.10;;;;;;6240763;23;20753;-79
2023/06/04 07:24:22;;;;;;;4.38;1.60;;;16.80;76.90;;;;;;6240800;23;20016;-79
2023/06/04 07:26:48;;;;;;;3.28;1.35;;;16.80;76.50;;;;;;6213725;23;20409;-79
2023/06/04 07:29:13;;;;;;;3.10;1.40;;;16.90;76.30;;;;;;6213828;23;20011;-78
2023/06/04 07:31:40;;;;;;;3.92;1.13;;;17.00;75.40;;;;;;6217029;23;20079;-78
2023/06/04 07:34:06;;;;;;;1.75;1.23;;;17.10;75.30;;;;;;6245352;23;20015;-78
2023/06/04 07:36:32;;;;;;;3.53;1.42;;;17.20;75.20;;;;;;6243612;23;19996;-78
2023/06/04 07:38:58;;;;;;;2.35;1.17;;;17.30;74.60;;;;;;6242330;23;20000;-78
2023/06/04 07:41:25;;;;;;;3.65;1.40;;;17.30;73.70;;;;;;6242508;23;20125;-79
2023/06/04 07:43:51;;;;;;;5.30;1.80;;;17.40;73.60;;;;;;6215671;23;20000;-79
2023/06/04 07:46:19;;;;;;;2.03;1.15;;;17.50;73.70;;;;;;6215581;23;20118;-79
2023/06/04 07:48:45;;;;;;;3.67;1.70;;;17.60;73.40;;;;;;6242057;23;20010;-79
2023/06/04 07:51:12;;;;;;;3.08;1.25;;;17.70;72.80;;;;;;6242793;23;20004;-79
2023/06/04 07:53:37;;;;;;;2.65;1.40;;;17.70;73.10;;;;;;6242711;23;20004;-77
2023/06/04 07:56:03;;;;;;;3.05;1.70;;;17.90;73.20;;;;;;6242614;23;20014;-77
2023/06/04 07:58:29;;;;;;;4.25;1.23;;;18.00;73.10;;;;;;6215961;23;20092;-78
2023/06/04 08:00:55;;;;;;;4.35;1.45;;;18.10;73.10;;;;;;6242428;23;20000;-79
2023/06/04 08:03:21;;;;;;;4.13;1.42;;;18.20;72.60;;;;;;6241990;23;20002;-79
2023/06/04 08:05:47;;;;;;;4.93;1.77;;;18.30;72.00;;;;;;6242583;23;20430;-77
2023/06/04 08:08:12;;;;;;;2.80;1.25;;;18.40;72.50;;;;;;6242390;23;20000;-78
2023/06/04 08:10:41;;;;;;;4.10;1.48;;;18.50;71.50;;;;;;6215611;23;20012;-77
2023/06/04 08:13:08;;;;;;;2.13;1.10;;;18.60;70.30;;;;;;6242618;23;20046;-79
2023/06/04 08:15:34;;;;;;;2.95;1.33;;;18.70;69.40;;;;;;6242588;23;20000;-78
2023/06/04 08:18:00;;;;;;;3.30;1.85;;;18.80;69.40;;;;;;6215427;23;20079;-77
2023/06/04 08:20:28;;;;;;;3.15;1.38;;;18.90;69.60;;;;;;6215228;23;20095;-79
2023/06/04 08:22:54;;;;;;;3.53;1.52;;;19.00;69.40;;;;;;6215256;23;20461;-78
2023/06/04 08:25:20;;;;;;;4.13;1.50;;;19.10;68.90;;;;;;6242191;23;20000;-78
2023/06/04 08:27:45;;;;;;;4.55;1.48;;;19.20;68.10;;;;;;6241950;23;20462;-78
2023/06/04 08:30:11;;;;;;;3.00;1.42;;;19.30;67.90;;;;;;6241497;23;20003;-79
2023/06/04 08:32:37;;;;;;;1.83;1.00;;;19.30;67.40;;;;;;6242188;23;20053;-78
2023/06/04 08:35:03;;;;;;;2.40;0.82;;;19.50;67.20;;;;;;6215566;23;20088;-78
2023/06/04 08:37:28;;;;;;;4.47;1.10;;;19.50;66.60;;;;;;6242435;23;20072;-78
2023/06/04 08:39:54;;;;;;;7.88;1.40;;;19.60;66.00;;;;;;6242284;23;20068;-78
2023/06/04 08:42:29;;;;;;;4.05;1.38;;;19.70;65.20;;;;;;6242048;23;20601;-78
2023/06/04 08:44:56;;;;;;;4.05;1.20;;;19.80;64.70;;;;;;6214118;23;20012;-78
2023/06/04 08:47:25;;;;;;;2.53;1.30;;;19.80;64.60;;;;;;6242156;23;19996;-78
2023/06/04 08:49:51;;;;;;;1.40;0.73;;;20.00;64.40;;;;;;6215184;23;20496;-78
2023/06/04 08:52:20;;;;;;;2.80;0.85;;;20.00;63.80;;;;;;6241773;23;20003;-79
2023/06/04 08:54:49;;;;;;;3.00;1.17;;;20.10;63.60;;;;;;6241957;23;20003;-79
2023/06/04 08:57:15;;;;;;;3.53;1.38;;;20.20;62.30;;;;;;6242020;23;20488;-79
2023/06/04 08:59:41;;;;;;;3.05;0.88;;;20.20;61.50;;;;;;6241382;23;20330;-78
2023/06/04 09:02:08;;;;;;;3.08;0.80;;;20.30;61.00;;;;;;6215037;23;20004;-78
2023/06/04 09:04:34;;;;;;;2.85;0.77;;;20.40;60.90;;;;;;6241682;23;20003;-78
2023/06/04 09:07:04;;;;;;;2.92;0.73;;;20.40;59.70;;;;;;6214908;23;20011;-78
2023/06/04 09:09:30;;;;;;;1.77;0.95;;;20.60;59.60;;;;;;6214848;23;20343;-78
2023/06/04 09:11:57;;;;;;;3.67;0.80;;;20.70;59.80;;;;;;6241675;23;20125;-78
2023/06/04 09:14:22;;;;;;;3.20;0.90;;;20.70;57.70;;;;;;6214150;23;20012;-78
2023/06/04 09:16:50;;;;;;;2.33;0.77;;;20.80;57.60;;;;;;6241581;23;20445;-78
2023/06/04 09:19:17;;;;;;;2.80;1.10;;;20.80;57.80;;;;;;6241788;23;20374;-78
2023/06/04 09:21:51;;;;;;;3.35;0.85;;;20.90;57.80;;;;;;6241653;23;20029;-77
2023/06/04 09:24:16;;;;;;;;;;;21.00;58.10;;;;;;6215303;23;20008;-75
2023/06/04 09:26:42;;;;;;;1.48;0.95;;;21.00;58.10;;;;;;6241464;23;19932;-76
2023/06/04 09:29:07;;;;;;;2.65;0.60;;;21.00;56.90;;;;;;6214329;23;20091;-77
2023/06/04 09:31:36;;;;;;;2.22;0.77;;;21.00;56.50;;;;;;6241599;23;20079;-77
2023/06/04 09:34:03;;;;;;;1.83;0.65;;;21.10;55.80;;;;;;6214961;23;20288;-77
2023/06/04 09:36:36;;;;;;;1.95;0.80;;;21.10;56.00;;;;;;6214708;23;20474;-74
2023/06/04 09:39:03;;;;;;;4.47;1.05;;;21.20;56.20;;;;;;6241429;23;20441;-76
2023/06/04 09:41:28;;;;;;;2.22;0.85;;;21.30;56.40;;;;;;6241100;23;20476;-76
2023/06/04 09:44:04;;;;;;;1.02;0.50;;;21.40;55.40;;;;;;6240746;23;20000;-76
2023/06/04 09:46:30;;;;;;;1.98;1.00;;;21.50;55.40;;;;;;6214635;23;20004;-77
2023/06/04 09:49:01;;;;;;;2.45;0.82;;;21.50;55.30;;;;;;6241306;23;20003;-76
2023/06/04 09:51:27;;;;;;;1.38;0.60;;;21.60;56.00;;;;;;6214542;23;20023;-76
2023/06/04 09:53:58;;;;;;;5.28;1.00;;;21.70;55.60;;;;;;6241297;23;20267;-76
2023/06/04 09:56:23;;;;;;;2.42;0.60;;;21.80;56.20;;;;;;6214114;23;20481;-77
2023/06/04 09:58:52;;;;;;;2.78;0.70;;;21.80;54.00;;;;;;6241028;23;20039;-76
2023/06/04 10:01:19;;;;;;;2.53;0.75;;;21.80;53.30;;;;;;6240747;23;20004;-76
2023/06/04 10:03:48;;;;;;;2.45;0.75;;;21.90;53.20;;;;;;6241340;23;20004;-78
2023/06/04 10:06:15;;;;;;;2.10;0.75;;;21.90;53.60;;;;;;6214348;23;20000;-77
2023/06/04 10:08:45;;;;;;;1.38;0.80;;;22.00;53.70;;;;;;6214519;23;20186;-78
2023/06/04 10:11:13;;;;;;;1.30;0.70;;;22.00;53.70;;;;;;6241130;23;20011;-77
2023/06/04 10:13:51;;;;;;;4.85;1.15;;;22.00;52.90;;;;;;6240723;23;19997;-78
2023/06/04 10:16:18;;;;;;;2.72;0.65;;;22.10;53.20;;;;;;6214314;23;20082;-77
2023/06/04 10:18:45;;;;;;;1.20;0.73;;;22.10;53.70;;;;;;6214212;23;20011;-77
2023/06/04 10:21:14;;;;;;;1.58;0.70;;;22.20;51.20;;;;;;6241318;23;20307;-75
2023/06/04 10:23:41;;;;;;;3.90;0.73;;;22.10;51.30;;;;;;6214032;23;20026;-77
2023/06/04 10:26:07;;;;;;;2.65;0.80;;;22.20;51.80;;;;;;6240395;23;20084;-78
2023/06/04 10:28:34;;;;;;;1.80;0.80;;;22.20;52.40;;;;;;6240818;23;19997;-78
2023/06/04 10:31:00;;;;;;;5.72;1.02;;;22.20;52.70;;;;;;6214520;23;20029;-78
2023/06/04 10:33:26;;;;;;;2.63;1.13;;;22.30;53.00;;;;;;6241050;23;20007;-78
2023/06/04 10:35:57;;;;;;;2.83;1.00;;;22.30;53.20;;;;;;6216815;23;20008;-78
2023/06/04 10:38:24;;;;;;;1.38;0.85;;;22.30;53.10;;;;;;6243159;23;20048;-77
2023/06/04 10:40:50;;;;;;;5.53;1.00;;;22.40;53.00;;;;;;6214115;23;20004;-78
2023/06/04 10:43:16;;;;;;;1.10;0.60;;;22.40;52.70;;;;;;6213918;23;20075;-78
2023/06/04 10:45:42;;;;;;;3.35;0.85;;;22.40;53.10;;;;;;6214282;23;20426;-79
2023/06/04 10:48:12;;;;;;;1.75;0.65;;;22.50;53.20;;;;;;6241012;23;20011;-80
2023/06/04 10:50:53;;;;;;;1.75;0.80;;;22.50;52.90;;;;;;6241623;23;20023;-78
2023/06/04 10:53:22;;;;;;;2.00;0.70;;;22.60;53.60;;;;;;6242569;23;20004;-78
2023/06/04 10:55:49;;;;;;;2.20;0.70;;;22.60;53.10;;;;;;6241377;23;20022;-77
2023/06/04 10:58:15;;;;;;;2.53;0.95;;;22.60;52.80;;;;;;6241004;23;20000;-78
2023/06/04 11:00:46;;;;;;;2.20;0.90;;;22.60;52.40;;;;;;6240734;23;20011;-77
2023/06/04 11:03:12;;;;;;;4.60;1.10;;;22.60;51.90;;;;;;6213862;23;20342;-77
2023/06/04 11:05:39;;;;;;;2.15;0.88;;;22.60;52.40;;;;;;6240784;23;20001;-76
2023/06/04 11:08:06;;;;;;;1.75;0.60;;;22.60;52.20;;;;;;6216069;23;20000;-77
2023/06/04 11:10:41;;;;;;;3.38;0.90;;;22.60;51.70;;;;;;6242429;23;20034;-77
2023/06/04 11:13:07;;;;;;;2.05;0.77;;;22.60;52.40;;;;;;6242812;23;20004;-77
2023/06/04 11:15:42;;;;;;;3.28;0.93;;;22.70;52.80;;;;;;6243101;23;20770;-77
2023/06/04 11:18:08;;;;;;;3.83;1.00;;;22.70;52.70;;;;;;6241879;23;20430;-76
2023/06/04 11:20:33;;;;;;;1.80;1.00;;;22.70;52.40;;;;;;6215420;23;20059;-77
2023/06/04 11:23:02;;;;;;;3.88;1.00;;;22.80;52.30;;;;;;6242627;23;20488;-76
2023/06/04 11:25:30;;;;;;;3.88;0.80;;;22.80;52.00;;;;;;6242069;23;20011;-77
2023/06/04 11:27:57;;;;;;;1.73;0.80;;;22.70;51.20;;;;;;6242756;23;20087;-76
2023/06/04 11:30:23;;;;;;;3.38;0.80;;;22.70;51.10;;;;;;6242624;23;20218;-77
2023/06/04 11:32:49;;;;;;;2.85;1.00;;;22.60;51.30;;;;;;6242405;23;20054;-80
2023/06/04 11:35:16;;;;;;;2.92;0.90;;;22.60;51.60;;;;;;6242560;23;20000;-79
2023/06/04 11:37:52;;;;;;;1.80;0.80;;;22.70;52.00;;;;;;6243000;23;20067;-79
2023/06/04 11:40:19;;;;;;;1.25;0.85;;;22.70;52.40;;;;;;6215701;23;20003;-76
2023/06/04 11:42:46;;;;;;;1.27;0.90;;;22.70;51.60;;;;;;6242961;23;19996;-77
2023/06/04 11:45:14;;;;;;;1.48;0.70;;;22.70;51.90;;;;;;6215713;23;20027;-76
2023/06/04 11:47:46;;;;;;;2.47;0.90;;;22.70;51.60;;;;;;6242192;23;20417;-77
2023/06/04 11:50:12;;;;;;;2.33;0.85;;;22.70;52.00;;;;;;6242368;23;20000;-76
2023/06/04 11:52:38;;;;;;;4.85;0.90;;;22.80;52.10;;;;;;6241609;23;20039;-76
2023/06/04 11:55:08;;;;;;;2.92;0.80;;;22.70;52.80;;;;;;6242249;23;20058;-77
2023/06/04 11:57:34;;;;;;;2.35;0.68;;;22.90;53.00;;;;;;6242298;23;20066;-75
2023/06/04 12:00:00;;;;;;;2.45;0.90;;;22.90;52.10;;;;;;6215819;23;20283;-75
2023/06/04 12:02:26;;;;;;;1.45;1.02;;;22.90;51.90;;;;;;6214775;23;20074;-75
2023/06/04 12:04:51;;;;;;;2.90;1.02;;;22.90;52.30;;;;;;6215578;23;20433;-75
2023/06/04 12:07:24;;;;;;;4.43;0.93;;;22.90;52.10;;;;;;6215289;23;20008;-75
2023/06/04 12:09:50;;;;;;;4.00;1.00;;;22.90;51.20;;;;;;6241770;23;20329;-74
2023/06/04 12:12:21;;;;;;;1.95;1.40;;;22.90;51.20;;;;;;6215466;23;20456;-75
2023/06/04 12:14:46;;;;;;;1.83;1.00;;;22.90;51.70;;;;;;6241479;23;20011;-76
2023/06/04 12:17:12;;;;;;;1.50;0.77;;;23.00;52.30;;;;;;6214833;23;20065;-75
2023/06/04 12:19:48;;;;;;;1.42;0.90;;;22.90;51.60;;;;;;6242006;23;20007;-75
2023/06/04 12:22:14;;;;;;;2.60;1.00;;;22.90;51.50;;;;;;6241359;23;20036;-75
2023/06/04 12:24:48;;;;;;;1.20;0.85;;;22.90;51.20;;;;;;6216029;23;20007;-75
2023/06/04 12:27:15;;;;;;;3.22;1.10;;;22.90;51.10;;;;;;6214626;23;20091;-76
2023/06/04 12:29:40;;;;;;;2.28;0.90;;;22.90;51.90;;;;;;6215476;23;20448;-75
2023/06/04 12:32:08;;;;;;;2.38;0.93;;;23.00;51.70;;;;;;6215312;23;20001;-75
2023/06/04 12:34:34;;;;;;;1.70;0.93;;;22.90;51.50;;;;;;6215125;23;20004;-75
2023/06/04 12:37:00;;;;;;;1.65;0.85;;;23.00;51.10;;;;;;6214522;23;20007;-75
2023/06/04 12:39:26;;;;;;;1.95;1.02;;;23.10;51.30;;;;;;6241838;23;20004;-79
2023/06/04 12:41:52;;;;;;;2.50;1.08;;;23.10;51.30;;;;;;6214813;23;20425;-77
2023/06/04 12:44:17;;;;;;;3.72;1.30;;;23.20;51.50;;;;;;6241821;23;20008;-78
2023/06/04 12:46:43;;;;;;;2.60;1.08;;;23.30;50.80;;;;;;6214832;23;20011;-77